• Join FlightAware (Why Join?)
  • Login
  • US Flag 
08:00PM EDT


 

Airport Tracker/Info


-or-


 

Live Flight TrackerFlight Track Log ✈ DAL150 ✈ 22-Apr-2012 ✈ SPIM / LIM - KATL

Flight Track Log - Related Links

Times and Time Zones

All times are in EDT time to prevent confusion due to time zone crossing. See the DAL150 flight status page for this flight to view local times or setup timezone preferences in your user account.

Time Position Orientation Groundspeed Altitude Reporting Facility
EDT Latitude Longitude Course Direction KTS MPH feet Rate Location/Type
06:58AM 23.1714 -81.1051 95° East  Level FlightAware Approximate
06:59AM 23.1503 -80.8372 337° Northwest 462 532 34,000  Level Miami Center
07:00AM 23.2656 -80.8906 338° Northwest 451 519 34,000  Level Miami Center
07:01AM 23.3814 -80.9417 339° North 451 519 34,000  Level Miami Center
07:02AM 23.4969 -80.9906 336° Northwest 451 519 34,000  Level Miami Center
07:03AM 23.6122 -81.0467 339° North 451 519 34,000  Level Miami Center
07:04AM 23.7278 -81.0958 338° Northwest 446 513 34,000  Level Miami Center
07:05AM 23.8350 -81.1425 338° Northwest 452 520 34,000  Level Miami Center
07:06AM 23.9486 -81.1939 343° North 452 520 34,000  Level Miami Center
07:07AM 24.0725 -81.2347 350° North 452 520 34,000  Level Miami Center
07:08AM 24.2014 -81.2597 351° North 452 520 34,000  Level Miami Center
07:09AM 24.3303 -81.2825 349° North 463 533 34,000  Level Miami Center
07:10AM 24.4631 -81.3100 350° North 474 545 34,000  Level Miami Center
07:11AM 24.5981 -81.3353 350° North 480 552 34,000 -60 Level Miami Center
07:12AM 24.7372 -81.3633 349° North 492 566 33,900  Descending Miami Center
07:13AM 24.8719 -81.3911 350° North 492 566 34,000  Climbing Miami Center
07:14AM 25.0069 -81.4167 350° North 492 566 34,000 660 Level Miami Center
07:15AM 25.1397 -81.4422 349° North 487 560 35,400 900 Climbing Miami Center
07:16AM 25.2706 -81.4700 351° North 480 552 35,900 300 Climbing Miami Center
07:17AM 25.3972 -81.4933 350° North 474 545 36,000  Climbing Miami Center
07:18AM 25.5258 -81.5189 350° North 474 545 36,000  Level Miami Center
07:19AM 25.6544 -81.5447 350° North 469 540 36,000  Level Miami Center
07:20AM 25.7872 -81.5706 351° North 469 540 36,000  Level Miami Center
07:21AM 25.9203 -81.5942 349° North 469 540 36,000  Level Miami Center
07:22AM 26.0486 -81.6225 350° North 474 545 36,000  Level Miami Center
07:23AM 26.1794 -81.6486 350° North 474 545 36,000  Level Miami Center
07:24AM 26.3100 -81.6747 351° North 474 545 36,000  Level Miami Center
07:25AM 26.4431 -81.6986 349° North 474 545 36,000  Level Miami Center
07:26AM 26.5694 -81.7269 349° North 474 545 36,000  Level Miami Center
07:27AM 26.7019 -81.7558 351° North 474 545 36,000  Level Miami Center
07:28AM 26.8347 -81.7800 350° North 480 552 36,000  Level Miami Center
07:29AM 26.9653 -81.8064 350° North 480 552 36,000  Level Miami Center
07:30AM 27.0981 -81.8331 350° North 480 552 36,000  Level Miami Center
07:31AM 27.2431 -81.8625 350° North 481 554 36,000  Level Miami Center
07:32AM 27.3758 -81.8894 350° North 481 554 36,000  Level Miami Center
07:33AM 27.5064 -81.9161 350° North 481 554 36,000  Level Miami Center
07:34AM 27.6264 -81.9403 350° North 481 554 36,000  Level Miami Center
07:35AM 27.7694 -81.9700 350° North 481 554 36,000  Level Miami Center
07:37AM 27.9550 -82.0067 335° Northwest 484 557 36,000  Level Jacksonville Center
07:38AM 28.0658 -82.0647 328° Northwest 465 535 36,000  Level Jacksonville Center
07:39AM 28.1728 -82.1392 328° Northwest 445 512 36,000  Level Jacksonville Center
07:40AM 28.2753 -82.2114 328° Northwest 445 512 36,000  Level Jacksonville Center
07:41AM 28.3822 -82.2861 328° Northwest 445 512 36,000  Level Jacksonville Center
07:42AM 28.4847 -82.3589 329° Northwest 445 512 36,000  Level Jacksonville Center
07:43AM 28.5914 -82.4317 329° Northwest 439 505 36,000  Level Jacksonville Center
07:44AM 28.7025 -82.5092 329° Northwest 439 505 36,000  Level Jacksonville Center
07:45AM 28.8089 -82.5822 328° Northwest 434 499 36,000  Level Jacksonville Center
07:46AM 28.8925 -82.6411 329° Northwest 434 499 36,000  Level Jacksonville Center
07:47AM 29.0075 -82.7217 328° Northwest 434 499 36,000  Level Jacksonville Center
07:48AM 29.1142 -82.7975 329° Northwest 434 499 36,000  Level Jacksonville Center
07:49AM 29.2228 -82.8736 328° Northwest 440 506 36,000  Level Jacksonville Center
07:50AM 29.3292 -82.9497 328° Northwest 445 512 36,000  Level Jacksonville Center
07:51AM 29.4397 -83.0286 327° Northwest 455 524 36,000  Level Jacksonville Center
07:52AM 29.5564 -83.1147 329° Northwest 448 516 36,000  Level Jacksonville Center
07:53AM 29.6586 -83.1867 327° Northwest 443 510 36,000  Level Jacksonville Center
07:54AM 29.7525 -83.2561 329° Northwest 443 510 36,000  Level Jacksonville Center
07:55AM 29.8544 -83.3261 329° Northwest 443 510 36,000  Level Jacksonville Center
07:56AM 29.9586 -83.3983 328° Northwest 437 503 36,000  Level Jacksonville Center
07:57AM 30.0606 -83.4733 328° Northwest 437 503 36,000  Level Jacksonville Center
07:58AM 30.1625 -83.5461 327° Northwest 432 497 36,000  Level Jacksonville Center
07:59AM 30.2622 -83.6214 328° Northwest 432 497 36,000  Level Jacksonville Center
08:00AM 30.3642 -83.6942 328° Northwest 432 497 36,000  Level Jacksonville Center
08:01AM 30.4681 -83.7700 328° Northwest 432 497 36,000  Level Jacksonville Center
08:02AM 30.5781 -83.8506 328° Northwest 432 497 36,000 -60 Level Jacksonville Center
08:03AM 30.6842 -83.9289 328° Northwest 438 504 35,900 -840 Descending Jacksonville Center
08:04AM 30.7900 -84.0050 327° Northwest 438 504 34,400 -960 Descending Jacksonville Center
08:05AM 30.8956 -84.0836 327° Northwest 444 511 34,000 -240 Descending Jacksonville Center
08:06AM 31.0014 -84.1625 328° Northwest 449 517 34,000  Level Jacksonville Center
08:07AM 31.1111 -84.2417 327° Northwest 454 522 34,000  Level Jacksonville Center
08:08AM 31.2169 -84.3211 327° Northwest 449 517 34,000  Level Jacksonville Center
08:09AM 31.3744 -84.4403 328° Northwest 468 539 34,000  Level Atlanta Center
08:10AM 31.4764 -84.5161 328° Northwest 462 532 34,000  Level Atlanta Center
08:11AM 31.5847 -84.5947 326° Northwest 456 525 34,000  Level Atlanta Center
08:12AM 31.6844 -84.6733 328° Northwest 456 525 34,000 -300 Level Atlanta Center
08:13AM 31.7906 -84.7522 321° Northwest 451 519 33,500 -600 Descending Atlanta Center
08:14AM 31.8797 -84.8386 309° West 438 504 32,900 -840 Descending Atlanta Center
08:15AM 31.9500 -84.9394 306° West 409 471 31,900 -1,200 Descending Atlanta Center
08:16AM 32.0139 -85.0431 308° West 403 464 30,500 -1,200 Descending Atlanta Center
08:17AM 32.0758 -85.1369 308° West 389 448 29,500 -1,140 Descending Atlanta Center
08:18AM 32.1272 -85.2136 305° West 353 406 28,300 -1,500 Descending Atlanta Center
08:19AM 32.1806 -85.3028 305° West 332 382 26,600 -1,740 Descending Atlanta Center
08:20AM 32.2358 -85.3967 319° Northwest 327 376 24,900 -1,320 Descending Atlanta Center
08:21AM 32.3000 -85.4617 332° Northwest 308 354 24,000 -960 Descending Atlanta Center
08:22AM 32.3786 -85.5119 331° Northwest 308 354 23,000 -1,320 Descending Atlanta Center
08:23AM 32.4531 -85.5600 360° North 313 360 21,400 -1,680 Descending Atlanta Center
08:24AM 32.5408 -85.5592 37° Northeast 296 341 19,700 -1,380 Descending Atlanta Center
08:25AM 32.6125 -85.4961 36° Northeast 288 331 18,700 -1,140 Descending Atlanta Center
08:26AM 32.6886 -85.4308 34° Northeast 319 367 17,500 -1,020 Descending Atlanta Center
08:27AM 32.7600 -85.3728 34° Northeast 325 374 16,700 -840 Descending Atlanta Center
08:28AM 32.8358 -85.3119 34° Northeast 325 374 15,900 -840 Descending Atlanta Center
08:29AM 32.9075 -85.2536 35° Northeast 320 368 15,100 -840 Descending Atlanta Center
08:30AM 32.9769 -85.1953 31° Northeast 309 356 14,300 -600 Descending Atlanta Center
08:31AM 33.0419 -85.1489 35° Northeast 304 350 14,000 -180 Descending Atlanta Center
08:32AM 33.1114 -85.0903 36° Northeast 304 350 14,000  Level Atlanta Center
08:33AM 33.1828 -85.0292 47° Northeast 310 357 14,000 -600 Level Atlanta Center
08:34AM 33.2419 -84.9528 48° Northeast 310 357 12,900 -1,020 Descending Atlanta Center
08:35AM 33.3008 -84.8739 48° Northeast 305 351 12,000 -480 Descending Atlanta Center
08:36AM 33.3642 -84.7900 48° Northeast 305 351 12,000  Level Atlanta Center
08:37AM 33.4208 -84.7133 48° Northeast 305 351 12,000  Level Atlanta Center
08:38AM 33.4775 -84.6367 47° Northeast 300 345 12,000  Level Atlanta Center
08:39AM 33.5322 -84.5672 79° East 300 345 12,000 -720 Level Atlanta Center
08:40AM 33.5450 -84.4850 88° East 248 285 10,600 -1,500 Descending Atlanta Center
08:42AM 33.5500 -84.3167 90° East 252 290 7,800 -1,440 Descending Atlanta TRACON
08:43AM 33.5500 -84.2333 90° East 247 284 6,500 -1,260 Descending Atlanta TRACON
08:44AM 33.5500 -84.1500 90° East 235 270 5,300 -1,140 Descending Atlanta TRACON
08:45AM 33.5500 -84.0833 40° Northeast 221 254 4,300 -660 Descending Atlanta TRACON
08:46AM 33.5833 -84.0500 309° West 199 229 4,000 -300 Descending Atlanta TRACON
08:47AM 33.6167 -84.1000 270° West 195 224 3,700 -300 Descending Atlanta TRACON
08:48AM 33.6167 -84.1667 270° West 194 223 3,500 -120 Descending Atlanta TRACON
08:49AM 33.6167 -84.2333 270° West 197 227 3,500 -240 Level Atlanta TRACON
08:50AM 33.6167 -84.2833 270° West 192 221 3,100 -660 Descending Atlanta TRACON
08:51AM 33.6167 -84.3500 270° West 161 185 2,200 -900 Descending Atlanta TRACON
08:52AM 33.6167 -84.4000 270° West 154 177 1,400 -840 Descending Atlanta TRACON